Elrod, AL (35458)

3:17 AM CST on November 26, 2014 (GMT -0600)
Bethany | Change Station
CLOSE
Current Station
Personal Weather Station
Location: Buhl, AL
Elevation: 367 ft
Nearby Weather Stations

Elev 367 ft 33.32 °N, 87.74 °W | Updated 2 minutes ago

Clear
Clear
34.5 °F
Feels Like 34 °F
N
0.0
Wind Variable Wind from North
Gusts 6.0 mph

Today
High -- | Low -- °F
--% Chance of Precip.
Yesterday
High -- | Low -- °F
Precip. -- in
6:32 AM 4:44 PM
Waxing Crescent, 18% visible
Pressure 30.16 in
Visibility 10.0 miles
Clouds Clear
Windchill 34 °F
Dew Point 30 °F
Humidity 85%
Rainfall 0.00 in
Snow Depth Not available.
UV 0 out of 12
Pollen 1.10 out of 12
Air Quality Not available.
Flu Activity Not available.
METAR KTCL 260853Z AUTO 31004KT 10SM CLR 02/M01 A3016 RMK AO2 SLP212 T00221011 53005

More Conditions Fewer Conditions

Pressure 30.16 in
Visibility 10.0 miles
Clouds Clear
Windchill 34 °F
Dew Point 30 °F
Humidity 85%
Rainfall 0.00 in
Snow Depth Not available.
UV 0 out of 12
Pollen 1.10 out of 12
Air Quality Not available.
Flu Activity Not available.
METAR KTCL 260853Z AUTO 31004KT 10SM CLR 02/M01 A3016 RMK AO2 SLP212 T00221011 53005

More Conditions Fewer Conditions

10-Day Weather Forecast

Almanac

Astronomy

Nov. 26, 2014 Rise Set
Actual Time
Civil Twilight
Nautical Twilight
Astronomical Twilight
Moon
Length of Visible Light
Length of Day
Tomorrow will be .
, % of the Moon is Illuminated

Today's Extremes

State Highs State Lows

Community

WunderPhotos

Upload Photos

1,773,701 photos uploaded!

WunderBlogs® & News

Nearby

Air Quality

  Air Quality AQ Index Pollutant
Not available.

Snow Depth

Station Depth Elevation

Earthquake Activity

City Distance Mag. Time & Date
Minimum magnitude displayed is 2.5.

Coastal Water Temperatures

Place Temperature

Nearby Weather Stations